createdAt,value
2018-05-05T00:00:31.053Z,2.83
2018-05-05T00:02:58.587Z,2.70
2018-05-05T00:05:26.114Z,2.77
2018-05-05T00:07:53.778Z,3.57
2018-05-05T00:10:21.358Z,3.77
2018-05-05T00:12:51.591Z,3.07
2018-05-05T00:15:19.153Z,2.90
2018-05-05T00:17:47.067Z,3.20
2018-05-05T00:20:14.588Z,2.80
2018-05-05T00:22:42.110Z,2.63
2018-05-05T00:25:09.675Z,3.37
2018-05-05T00:27:37.201Z,2.60
2018-05-05T00:30:04.931Z,2.20
2018-05-05T00:32:32.464Z,2.73
2018-05-05T00:34:59.982Z,3.43
2018-05-05T00:37:27.566Z,2.87
2018-05-05T00:39:55.119Z,2.80
2018-05-05T00:42:22.675Z,2.57
2018-05-05T00:44:50.195Z,3.20
2018-05-05T00:47:17.757Z,2.37
2018-05-05T00:49:45.341Z,2.17
2018-05-05T00:52:12.898Z,3.00
2018-05-05T00:54:49.131Z,2.60
2018-05-05T00:57:16.880Z,3.20
2018-05-05T00:59:44.400Z,2.93
2018-05-05T01:02:11.918Z,2.50
2018-05-05T01:04:39.476Z,2.73
2018-05-05T01:07:06.999Z,2.93
2018-05-05T01:09:34.509Z,2.90
2018-05-05T01:12:02.118Z,2.80
2018-05-05T01:14:29.646Z,2.70
2018-05-05T01:16:57.193Z,3.10
2018-05-05T01:19:24.760Z,3.57
2018-05-05T01:21:52.290Z,2.30
2018-05-05T01:24:19.862Z,3.03
2018-05-05T01:26:47.383Z,3.50
2018-05-05T01:29:14.911Z,2.93
2018-05-05T01:31:42.475Z,3.53
2018-05-05T01:34:10.002Z,3.33
2018-05-05T01:36:37.575Z,2.60
2018-05-05T01:39:05.144Z,2.70
2018-05-05T01:41:32.666Z,3.90
2018-05-05T01:44:00.622Z,2.77
2018-05-05T01:46:28.143Z,3.20
2018-05-05T01:48:55.671Z,2.87
2018-05-05T01:51:23.496Z,3.50
2018-05-05T01:53:51.077Z,3.90
2018-05-05T01:56:18.612Z,3.17
2018-05-05T01:58:46.140Z,3.17
2018-05-05T02:01:13.689Z,3.00
2018-05-05T02:03:41.237Z,3.67
2018-05-05T02:06:08.927Z,3.30
2018-05-05T02:08:36.462Z,3.17
2018-05-05T02:11:03.983Z,3.20
2018-05-05T02:13:31.556Z,3.90
2018-05-05T02:15:59.091Z,3.00
2018-05-05T02:18:26.615Z,3.90
2018-05-05T02:20:54.167Z,3.60
2018-05-05T02:23:21.691Z,3.97
2018-05-05T02:25:49.675Z,3.60
2018-05-05T02:28:17.195Z,3.10
2018-05-05T02:30:44.722Z,3.90
2018-05-05T02:33:12.272Z,3.40
2018-05-05T02:35:39.805Z,3.53
2018-05-05T02:38:07.360Z,4.37
2018-05-05T02:40:35.324Z,4.60
2018-05-05T02:43:02.847Z,4.70
2018-05-05T02:45:30.395Z,3.60
2018-05-05T02:47:57.943Z,3.30
2018-05-05T02:50:25.720Z,4.17
2018-05-05T02:52:53.239Z,3.53
2018-05-05T02:55:20.767Z,3.80
2018-05-05T02:57:48.323Z,4.40
2018-05-05T03:00:15.994Z,3.90
2018-05-05T03:02:43.545Z,3.93
2018-05-05T03:05:11.080Z,4.70
2018-05-05T03:07:38.689Z,3.93
2018-05-05T03:10:06.226Z,4.00
2018-05-05T03:12:33.763Z,3.73
2018-05-05T03:15:01.360Z,4.60
2018-05-05T03:17:29.123Z,3.90
2018-05-05T03:19:56.650Z,4.07
2018-05-05T03:22:24.183Z,3.67
2018-05-05T03:24:51.735Z,4.17
2018-05-05T03:27:19.286Z,4.10
2018-05-05T03:29:46.811Z,4.67
2018-05-05T03:32:14.383Z,4.00
2018-05-05T03:34:41.907Z,4.27
2018-05-05T03:37:09.437Z,4.93
2018-05-05T03:39:36.993Z,4.13
2018-05-05T03:42:04.610Z,4.93
2018-05-05T03:44:32.135Z,5.33
2018-05-05T03:46:59.668Z,4.13
2018-05-05T03:49:27.691Z,4.83
2018-05-05T03:51:55.216Z,4.70
2018-05-05T03:54:22.764Z,4.60
2018-05-05T03:56:50.315Z,4.80
2018-05-05T03:59:29.651Z,4.60
2018-05-05T04:02:09.239Z,3.77
2018-05-05T04:07:32.199Z,4.07
2018-05-05T04:09:59.740Z,5.50
2018-05-05T04:12:27.280Z,5.20
2018-05-05T04:14:54.836Z,4.93
2018-05-05T04:17:22.362Z,5.30
2018-05-05T04:19:49.941Z,4.20
2018-05-05T04:22:17.467Z,5.00
2018-05-05T04:24:45.007Z,5.93
2018-05-05T04:27:12.568Z,5.50
2018-05-05T04:29:40.105Z,5.10
2018-05-05T04:32:07.662Z,5.07
2018-05-05T04:34:35.187Z,5.23
2018-05-05T04:37:02.870Z,4.50
2018-05-05T04:39:30.399Z,5.23
2018-05-05T04:41:57.933Z,5.23
2018-05-05T04:44:25.590Z,5.57
2018-05-05T04:46:53.082Z,5.23
2018-05-05T04:49:20.625Z,5.60
2018-05-05T04:51:48.624Z,5.50
2018-05-05T04:54:16.149Z,5.60
2018-05-05T04:56:43.684Z,5.10
2018-05-05T04:59:11.442Z,6.40
2018-05-05T05:01:38.971Z,5.23
2018-05-05T05:04:06.494Z,4.70
2018-05-05T05:06:34.046Z,5.20
2018-05-05T05:09:01.594Z,6.07
2018-05-05T05:11:29.120Z,5.07
2018-05-05T05:13:56.676Z,5.33
2018-05-05T05:16:24.238Z,4.83
2018-05-05T05:18:51.786Z,5.03
2018-05-05T05:21:19.319Z,5.60
2018-05-05T05:23:47.074Z,5.30
2018-05-05T05:26:14.606Z,6.10
2018-05-05T05:28:42.221Z,4.80
2018-05-05T05:31:09.732Z,5.07
2018-05-05T05:33:37.298Z,5.00
2018-05-05T05:36:04.872Z,4.40
2018-05-05T05:38:32.638Z,5.00
2018-05-05T05:41:00.179Z,3.90
2018-05-05T05:43:27.728Z,4.70
2018-05-05T05:45:55.285Z,5.20
2018-05-05T05:48:22.814Z,3.80
2018-05-05T05:50:50.376Z,5.17
2018-05-05T05:53:17.902Z,3.83
2018-05-05T05:55:45.526Z,4.30
2018-05-05T05:58:13.049Z,4.13
2018-05-05T06:00:40.982Z,4.90
2018-05-05T06:03:08.515Z,4.30
2018-05-05T06:05:36.057Z,4.73
2018-05-05T06:08:03.614Z,5.00
2018-05-05T06:10:31.144Z,4.20
2018-05-05T06:12:58.694Z,4.37
2018-05-05T06:15:26.229Z,5.00
2018-05-05T06:17:53.987Z,4.83
2018-05-05T06:20:21.508Z,4.60
2018-05-05T06:22:49.048Z,4.53
2018-05-05T06:25:16.625Z,4.30
2018-05-05T06:27:44.148Z,4.40
2018-05-05T06:30:11.855Z,4.50
2018-05-05T06:32:39.387Z,5.07
2018-05-05T06:35:06.925Z,5.87
2018-05-05T06:37:34.475Z,4.43
2018-05-05T06:40:02.096Z,3.97
2018-05-05T06:42:29.632Z,4.03
2018-05-05T06:44:57.194Z,4.63
2018-05-05T06:47:24.748Z,4.50
2018-05-05T06:49:52.334Z,5.33
2018-05-05T06:52:19.887Z,4.00
2018-05-05T06:54:47.420Z,5.30
2018-05-05T06:57:15.164Z,5.00
2018-05-05T06:59:42.693Z,4.57
2018-05-05T07:02:10.224Z,4.70
2018-05-05T07:04:37.842Z,5.60
2018-05-05T07:07:05.407Z,5.10
2018-05-05T07:09:32.966Z,5.20
2018-05-05T07:12:00.515Z,5.60
2018-05-05T07:14:28.074Z,5.10
2018-05-05T07:16:55.627Z,4.77
2018-05-05T07:19:23.179Z,5.10
2018-05-05T07:21:50.760Z,4.77
2018-05-05T07:24:18.293Z,5.67
2018-05-05T07:26:45.822Z,5.43
2018-05-05T07:29:13.396Z,4.93
2018-05-05T07:31:40.934Z,6.13
2018-05-05T07:34:08.458Z,5.40
2018-05-05T07:36:36.011Z,5.40
2018-05-05T07:39:03.611Z,5.77
2018-05-05T07:41:31.186Z,6.07
2018-05-05T07:43:58.705Z,6.63
2018-05-05T07:46:26.626Z,4.70
2018-05-05T07:48:54.176Z,4.97
2018-05-05T07:51:21.698Z,5.40
2018-05-05T07:53:49.267Z,5.30
2018-05-05T07:56:16.806Z,5.03
2018-05-05T07:58:44.336Z,5.07
2018-05-05T08:01:11.887Z,4.90
2018-05-05T08:03:39.945Z,5.80
2018-05-05T08:06:07.471Z,5.40
2018-05-05T08:08:35.012Z,4.80
2018-05-05T08:11:02.570Z,5.60
2018-05-05T08:13:30.096Z,5.40
2018-05-05T08:15:58.128Z,5.40
2018-05-05T08:18:25.676Z,7.07
2018-05-05T08:20:53.221Z,5.00
2018-05-05T08:23:20.765Z,4.80
2018-05-05T08:25:48.290Z,5.37
2018-05-05T08:28:15.991Z,4.90
2018-05-05T08:30:43.516Z,5.03
2018-05-05T08:33:11.039Z,5.30
2018-05-05T08:35:38.596Z,4.73
2018-05-05T08:38:06.160Z,4.13
2018-05-05T08:40:33.715Z,4.40
2018-05-05T08:43:01.255Z,4.17
2018-05-05T08:45:28.833Z,5.03
2018-05-05T08:47:56.364Z,5.00
2018-05-05T08:50:24.035Z,4.90
2018-05-05T08:52:51.555Z,4.60
2018-05-05T08:55:19.154Z,5.40
2018-05-05T08:57:46.657Z,4.30
2018-05-05T09:00:14.236Z,4.33
2018-05-05T09:02:41.764Z,3.20
2018-05-05T09:05:09.316Z,4.13
2018-05-05T09:07:36.875Z,4.17
2018-05-05T09:10:04.428Z,4.00
2018-05-05T09:12:31.985Z,3.67
2018-05-05T09:14:59.678Z,4.90
2018-05-05T09:17:27.203Z,3.93
2018-05-05T09:19:54.727Z,5.13
2018-05-05T09:22:22.806Z,5.00
2018-05-05T09:24:50.340Z,5.13
2018-05-05T09:27:17.867Z,4.90
2018-05-05T09:29:45.424Z,4.43
2018-05-05T09:32:12.963Z,4.87
2018-05-05T09:34:40.527Z,4.77
2018-05-05T09:37:08.107Z,4.60
2018-05-05T09:39:35.645Z,4.83
2018-05-05T09:42:03.172Z,4.27
2018-05-05T09:44:30.717Z,6.27
2018-05-05T09:46:58.243Z,4.47
2018-05-05T09:49:25.797Z,6.13
2018-05-05T09:51:53.320Z,4.50
2018-05-05T09:54:20.884Z,5.00
2018-05-05T09:56:48.423Z,5.73
2018-05-05T09:59:15.995Z,4.97
2018-05-05T10:01:43.526Z,5.77
2018-05-05T10:04:11.056Z,5.40
2018-05-05T10:06:38.618Z,5.70
2018-05-05T10:09:06.158Z,6.47
2018-05-05T10:11:33.713Z,5.80
2018-05-05T10:14:01.248Z,6.23
2018-05-05T10:16:28.835Z,5.30
2018-05-05T10:18:56.404Z,5.70
2018-05-05T10:21:23.934Z,6.00
2018-05-05T10:23:51.990Z,6.40
2018-05-05T10:26:20.408Z,5.57
2018-05-05T10:28:47.935Z,5.50
2018-05-05T10:31:15.571Z,5.43
2018-05-05T10:33:43.104Z,6.40
2018-05-05T10:36:11.023Z,5.47
2018-05-05T10:38:38.573Z,6.90
2018-05-05T10:41:06.104Z,6.50
2018-05-05T10:43:33.844Z,6.40
2018-05-05T10:46:01.404Z,5.60
2018-05-05T10:48:28.932Z,4.80
2018-05-05T10:50:56.486Z,4.93
2018-05-05T10:53:24.042Z,4.30
2018-05-05T10:55:51.578Z,5.43
2018-05-05T10:58:19.188Z,6.33
2018-05-05T11:00:46.690Z,5.00
2018-05-05T11:03:14.422Z,5.43
2018-05-05T11:05:41.945Z,6.50
2018-05-05T11:08:09.471Z,5.77
2018-05-05T11:10:37.022Z,5.03
2018-05-05T11:13:04.584Z,5.83
2018-05-05T11:15:32.142Z,5.73
2018-05-05T11:17:59.734Z,5.93
2018-05-05T11:20:27.264Z,6.30
2018-05-05T11:22:54.823Z,5.70
2018-05-05T11:25:22.395Z,5.67
2018-05-05T11:27:49.965Z,5.03
2018-05-05T11:30:17.506Z,5.70
2018-05-05T11:32:45.062Z,6.17
2018-05-05T11:35:12.597Z,5.50
2018-05-05T11:37:40.202Z,6.73
2018-05-05T11:40:07.726Z,7.10
2018-05-05T11:42:35.285Z,6.13
2018-05-05T11:45:02.985Z,6.07
2018-05-05T11:47:30.525Z,6.90
2018-05-05T11:49:58.052Z,5.90
2018-05-05T11:52:25.645Z,6.97
2018-05-05T11:54:53.199Z,7.20
2018-05-05T11:57:20.791Z,7.87
2018-05-05T11:59:48.328Z,6.40
2018-05-05T12:02:15.934Z,6.53
2018-05-05T12:04:43.656Z,6.60
2018-05-05T12:07:11.179Z,6.63
2018-05-05T12:09:38.706Z,6.87
2018-05-05T12:12:06.375Z,5.50
2018-05-05T12:14:33.939Z,6.13
2018-05-05T12:17:01.525Z,5.70
2018-05-05T12:19:29.096Z,5.30
2018-05-05T12:21:56.670Z,5.30
2018-05-05T12:24:24.342Z,5.40
2018-05-05T12:26:51.874Z,5.40
2018-05-05T12:29:19.403Z,7.10
2018-05-05T12:31:46.999Z,7.67
2018-05-05T12:34:14.532Z,5.93
2018-05-05T12:36:42.058Z,7.00
2018-05-05T12:39:09.616Z,5.73
2018-05-05T12:41:37.193Z,6.13
2018-05-05T12:44:04.766Z,6.53
2018-05-05T12:46:32.296Z,6.13
2018-05-05T12:48:59.827Z,7.07
2018-05-05T12:51:27.765Z,6.27
2018-05-05T12:53:55.287Z,6.23
2018-05-05T12:56:22.806Z,6.90
2018-05-05T12:58:50.363Z,6.80
2018-05-05T13:01:18.247Z,5.50
2018-05-05T13:03:45.767Z,5.00
2018-05-05T13:06:13.287Z,4.80
2018-05-05T13:08:40.841Z,6.47
2018-05-05T13:11:08.372Z,6.43
2018-05-05T13:13:35.925Z,6.87
2018-05-05T13:16:03.452Z,6.10
2018-05-05T13:18:31.417Z,7.07
2018-05-05T13:20:58.943Z,5.53
2018-05-05T13:23:26.468Z,6.60
2018-05-05T13:25:54.597Z,5.50
2018-05-05T13:28:22.119Z,6.30
2018-05-05T13:30:49.655Z,5.60
2018-05-05T13:33:17.217Z,5.60
2018-05-05T13:35:44.744Z,7.07
2018-05-05T13:38:12.320Z,5.00
2018-05-05T13:40:39.843Z,6.13
2018-05-05T13:43:07.377Z,5.97
2018-05-05T13:45:34.940Z,5.77
2018-05-05T13:48:02.477Z,5.80
2018-05-05T13:50:30.073Z,6.27
2018-05-05T13:52:57.602Z,5.00
2018-05-05T13:55:25.126Z,4.10
2018-05-05T13:57:52.703Z,5.10
2018-05-05T14:00:20.248Z,5.03
2018-05-05T14:02:47.767Z,5.00
2018-05-05T14:05:15.320Z,5.80
2018-05-05T14:07:42.847Z,5.20
2018-05-05T14:10:10.428Z,5.57
2018-05-05T14:12:37.947Z,5.17
2018-05-05T14:15:05.497Z,4.80
2018-05-05T14:17:33.535Z,4.17
2018-05-05T14:20:01.063Z,4.87
2018-05-05T14:22:28.596Z,6.33
2018-05-05T14:24:56.150Z,5.60
2018-05-05T14:27:23.717Z,5.80
2018-05-05T14:29:51.272Z,4.83
2018-05-05T14:32:18.795Z,5.23
2018-05-05T14:34:46.548Z,4.60
2018-05-05T14:37:14.062Z,4.90
2018-05-05T14:39:41.596Z,3.90
2018-05-05T14:42:09.142Z,5.20
2018-05-05T14:44:36.693Z,5.20
2018-05-05T14:47:04.227Z,4.40
2018-05-05T14:49:32.197Z,4.73
2018-05-05T14:51:59.720Z,5.67
2018-05-05T14:54:27.238Z,5.03
2018-05-05T14:56:54.826Z,4.87
2018-05-05T14:59:22.346Z,5.57
2018-05-05T15:01:49.899Z,5.80
2018-05-05T15:04:17.420Z,4.97
2018-05-05T15:06:44.980Z,5.20
2018-05-05T15:09:12.533Z,6.53
2018-05-05T15:11:40.247Z,6.20
2018-05-05T15:14:07.785Z,4.33
2018-05-05T15:16:35.307Z,5.23
2018-05-05T15:19:03.072Z,5.23
2018-05-05T15:21:30.589Z,5.07
2018-05-05T15:23:58.184Z,5.20
2018-05-05T15:26:25.897Z,5.70
2018-05-05T15:28:53.416Z,5.27
2018-05-05T15:31:20.943Z,5.80
2018-05-05T15:33:48.485Z,5.97
2018-05-05T15:36:16.166Z,6.87
2018-05-05T15:38:43.861Z,7.03
2018-05-05T15:41:11.393Z,6.07
2018-05-05T15:43:38.930Z,5.03
2018-05-05T15:46:06.493Z,4.63
2018-05-05T15:48:34.051Z,4.90
2018-05-05T15:51:01.632Z,5.50
2018-05-05T15:53:29.150Z,5.40
2018-05-05T15:55:56.803Z,5.90
2018-05-05T15:58:24.328Z,5.47
2018-05-05T16:00:51.857Z,4.53
2018-05-05T16:03:19.508Z,5.47
2018-05-05T16:05:47.063Z,4.33
2018-05-05T16:08:14.739Z,4.90
2018-05-05T16:10:42.288Z,5.40
2018-05-05T16:13:09.810Z,5.47
2018-05-05T16:15:37.563Z,5.27
2018-05-05T16:18:05.109Z,5.00
2018-05-05T16:20:32.631Z,5.00
2018-05-05T16:23:00.194Z,4.93
2018-05-05T16:25:27.765Z,5.13
2018-05-05T16:27:55.313Z,5.07
2018-05-05T16:30:22.843Z,4.80
2018-05-05T16:32:50.431Z,5.50
2018-05-05T16:35:17.960Z,4.30
2018-05-05T16:37:45.494Z,4.80
2018-05-05T16:40:13.048Z,4.43
2018-05-05T16:42:40.597Z,3.60
2018-05-05T16:45:08.125Z,5.40
2018-05-05T16:47:36.195Z,4.20
2018-05-05T16:50:03.707Z,4.60
2018-05-05T16:52:31.254Z,4.67
2018-05-05T16:54:58.946Z,8.60
2018-05-05T16:57:26.465Z,6.80
2018-05-05T16:59:53.999Z,6.90
2018-05-05T17:02:21.539Z,4.50
2018-05-05T17:04:49.839Z,5.53
2018-05-05T17:07:17.366Z,4.50
2018-05-05T17:09:44.891Z,4.43
2018-05-05T17:12:12.432Z,4.40
2018-05-05T17:14:39.999Z,4.30
2018-05-05T17:17:07.528Z,4.43
2018-05-05T17:19:35.047Z,4.60
2018-05-05T17:22:02.961Z,3.73
2018-05-05T17:24:32.488Z,3.40
2018-05-05T17:27:00.140Z,4.47
2018-05-05T17:29:27.681Z,3.83
2018-05-05T17:31:55.224Z,4.07
2018-05-05T17:34:22.761Z,3.40
2018-05-05T17:36:50.300Z,3.73
2018-05-05T17:39:17.823Z,3.97
2018-05-05T17:41:45.421Z,5.07
2018-05-05T17:44:12.974Z,4.33
2018-05-05T17:46:40.499Z,5.67
2018-05-05T17:49:08.051Z,4.57
2018-05-05T17:51:35.596Z,4.10
2018-05-05T17:54:03.178Z,3.97
2018-05-05T17:56:30.698Z,4.23
2018-05-05T17:58:58.259Z,4.10
2018-05-05T18:01:25.782Z,4.20
2018-05-05T18:03:53.335Z,3.40
2018-05-05T18:06:20.868Z,4.67
2018-05-05T18:08:48.595Z,4.00
2018-05-05T18:11:16.185Z,4.80
2018-05-05T18:13:43.679Z,3.23
2018-05-05T18:16:11.910Z,3.77
2018-05-05T18:18:39.451Z,3.47
2018-05-05T18:21:07.067Z,3.27
2018-05-05T18:23:34.737Z,3.23
2018-05-05T18:26:02.372Z,2.33
2018-05-05T18:28:29.927Z,2.80
2018-05-05T18:30:57.473Z,2.50
2018-05-05T18:33:25.005Z,2.40
2018-05-05T18:35:52.675Z,2.43
2018-05-05T18:38:20.216Z,2.50
2018-05-05T18:40:47.968Z,2.80
2018-05-05T18:43:15.566Z,2.47
2018-05-05T18:45:43.071Z,3.10
2018-05-05T18:48:10.735Z,2.33
2018-05-05T18:50:38.495Z,2.70
2018-05-05T18:53:06.048Z,2.43
2018-05-05T18:55:33.625Z,3.00
2018-05-05T18:58:01.160Z,2.40
2018-05-05T19:00:28.709Z,2.60
2018-05-05T19:02:56.398Z,2.23
2018-05-05T19:05:23.953Z,2.60
2018-05-05T19:07:51.477Z,2.50
2018-05-05T19:10:19.040Z,4.00
2018-05-05T19:12:46.610Z,3.00
2018-05-05T19:15:14.195Z,2.73
2018-05-05T19:17:41.720Z,2.80
2018-05-05T19:20:09.676Z,2.60
2018-05-05T19:22:37.200Z,3.40
2018-05-05T19:25:04.723Z,2.80
2018-05-05T19:27:32.495Z,2.30
2018-05-05T19:30:00.026Z,3.03
2018-05-05T19:32:27.575Z,3.40
2018-05-05T19:34:55.142Z,3.97
2018-05-05T19:37:22.889Z,4.17
2018-05-05T19:39:50.417Z,3.93
2018-05-05T19:42:17.959Z,4.33
2018-05-05T19:44:45.524Z,4.10
2018-05-05T19:47:13.066Z,3.40
2018-05-05T19:49:40.739Z,3.80
2018-05-05T19:52:08.270Z,4.20
2018-05-05T19:54:35.803Z,3.80
2018-05-05T19:57:03.355Z,3.50
2018-05-05T19:59:31.242Z,3.43
2018-05-05T20:01:58.780Z,3.53
2018-05-05T20:04:26.344Z,2.80
2018-05-05T20:06:54.376Z,3.63
2018-05-05T20:09:21.904Z,3.53
2018-05-05T20:11:49.465Z,3.23
2018-05-05T20:14:17.057Z,4.00
2018-05-05T20:16:44.582Z,3.90
2018-05-05T20:19:12.125Z,3.70
2018-05-05T20:21:39.671Z,4.70
2018-05-05T20:24:07.271Z,3.73
2018-05-05T20:26:34.828Z,4.10
2018-05-05T20:29:02.634Z,3.10
2018-05-05T20:31:30.169Z,3.60
2018-05-05T20:33:57.697Z,3.83
2018-05-05T20:36:25.251Z,3.93
2018-05-05T20:38:52.775Z,3.87
2018-05-05T20:41:20.328Z,4.10
2018-05-05T20:43:47.854Z,3.67
2018-05-05T20:46:15.377Z,3.17
2018-05-05T20:48:42.936Z,3.40
2018-05-05T20:51:10.473Z,2.83
2018-05-05T20:53:38.162Z,3.00
2018-05-05T20:56:05.683Z,2.60
2018-05-05T20:58:33.207Z,3.70
2018-05-05T21:01:00.761Z,2.80
2018-05-05T21:03:28.295Z,3.53
2018-05-05T21:05:56.230Z,3.10
2018-05-05T21:08:23.766Z,2.63
2018-05-05T21:10:51.291Z,3.20
2018-05-05T21:13:19.244Z,2.80
2018-05-05T21:15:46.777Z,2.80
2018-05-05T21:18:14.301Z,2.97
2018-05-05T21:20:41.865Z,2.33
2018-05-05T21:23:09.560Z,2.33
2018-05-05T21:25:37.088Z,3.00
2018-05-05T21:28:04.644Z,2.50
2018-05-05T21:30:32.595Z,2.33
2018-05-05T21:33:00.136Z,3.17
2018-05-05T21:35:27.663Z,2.80
2018-05-05T21:37:55.255Z,3.33
2018-05-05T21:40:22.816Z,2.60
2018-05-05T21:42:50.336Z,2.70
2018-05-05T21:45:18.324Z,2.60
2018-05-05T21:47:45.850Z,2.50
2018-05-05T21:50:13.378Z,2.33
2018-05-05T21:52:40.968Z,2.30
2018-05-05T21:55:08.563Z,2.47
2018-05-05T21:57:36.087Z,2.73
2018-05-05T22:00:03.649Z,2.70
2018-05-05T22:02:31.199Z,2.60
2018-05-05T22:04:58.723Z,2.60
2018-05-05T22:07:26.315Z,3.00
2018-05-05T22:09:53.838Z,2.33
2018-05-05T22:12:21.354Z,2.77
2018-05-05T22:14:48.906Z,2.80
2018-05-05T22:17:16.436Z,2.00
2018-05-05T22:19:44.036Z,3.83
2018-05-05T22:22:11.564Z,2.67
2018-05-05T22:24:39.095Z,2.17
2018-05-05T22:27:06.664Z,2.50
2018-05-05T22:29:34.184Z,2.63
2018-05-05T22:32:01.774Z,1.90
2018-05-05T22:34:29.371Z,2.20
2018-05-05T22:36:56.891Z,2.30
2018-05-05T22:39:24.418Z,2.27
2018-05-05T22:41:51.970Z,1.90
2018-05-05T22:44:19.504Z,2.83
2018-05-05T22:46:47.051Z,2.90
2018-05-05T22:49:14.967Z,2.33
2018-05-05T22:51:42.525Z,2.40
2018-05-05T22:54:10.054Z,2.43
2018-05-05T22:56:37.611Z,1.90
2018-05-05T22:59:05.155Z,2.50
2018-05-05T23:01:32.692Z,2.27
2018-05-05T23:04:00.239Z,2.83
2018-05-05T23:06:27.768Z,2.87
2018-05-05T23:08:55.334Z,2.53
2018-05-05T23:11:22.864Z,2.57
2018-05-05T23:13:50.387Z,2.60
2018-05-05T23:16:17.944Z,2.60
2018-05-05T23:18:45.491Z,2.93
2018-05-05T23:21:13.015Z,2.90
2018-05-05T23:23:40.598Z,2.43
2018-05-05T23:26:08.615Z,3.43
2018-05-05T23:28:36.129Z,2.50
2018-05-05T23:31:03.685Z,2.80
2018-05-05T23:33:31.237Z,3.63
2018-05-05T23:35:58.763Z,3.07
2018-05-05T23:38:26.315Z,3.10
2018-05-05T23:40:54.315Z,2.93
2018-05-05T23:43:21.848Z,2.30
2018-05-05T23:45:49.370Z,2.70
2018-05-05T23:48:17.291Z,2.63
2018-05-05T23:50:44.810Z,2.20
2018-05-05T23:53:12.348Z,2.63
2018-05-05T23:55:39.901Z,2.50
2018-05-05T23:58:07.419Z,2.97
